sensor_id;sensor_type;location;lat;lon;timestamp;pressure;altitude;pressure_sealevel;temperature;humidity
10176;BME280;18221;38.704;0.152;2023-05-10T00:04:57;99051.41;;;23.47;43.48
10176;BME280;18221;38.704;0.152;2023-05-10T00:07:25;99061.25;;;23.42;43.55
10176;BME280;18221;38.704;0.152;2023-05-10T00:09:54;99067.91;;;23.46;42.88
10176;BME280;18221;38.704;0.152;2023-05-10T00:12:23;99062.66;;;23.51;42.51
10176;BME280;18221;38.704;0.152;2023-05-10T00:14:52;99060.53;;;23.53;42.30
10176;BME280;18221;38.704;0.152;2023-05-10T00:17:20;99056.03;;;23.65;41.74
10176;BME280;18221;38.704;0.152;2023-05-10T00:19:49;99068.06;;;23.51;42.28
10176;BME280;18221;38.704;0.152;2023-05-10T00:22:19;99065.75;;;23.23;42.46
10176;BME280;18221;38.704;0.152;2023-05-10T00:24:48;99066.66;;;23.42;42.05
10176;BME280;18221;38.704;0.152;2023-05-10T00:27:17;99071.34;;;23.59;41.50
10176;BME280;18221;38.704;0.152;2023-05-10T00:29:46;99067.63;;;23.54;41.75
10176;BME280;18221;38.704;0.152;2023-05-10T00:32:15;99069.53;;;23.47;41.23
10176;BME280;18221;38.704;0.152;2023-05-10T00:34:44;99068.09;;;23.44;40.79
10176;BME280;18221;38.704;0.152;2023-05-10T00:37:12;99064.41;;;23.39;40.53
10176;BME280;18221;38.704;0.152;2023-05-10T00:39:42;99059.09;;;23.50;39.90
10176;BME280;18221;38.704;0.152;2023-05-10T00:42:11;99061.13;;;23.55;39.73
10176;BME280;18221;38.704;0.152;2023-05-10T00:44:39;99066.97;;;23.58;39.58
10176;BME280;18221;38.704;0.152;2023-05-10T00:47:08;99069.66;;;23.58;39.42
10176;BME280;18221;38.704;0.152;2023-05-10T00:49:37;99064.97;;;23.72;39.09
10176;BME280;18221;38.704;0.152;2023-05-10T00:52:06;99063.41;;;23.82;38.60
10176;BME280;18221;38.704;0.152;2023-05-10T00:54:35;99060.69;;;23.82;38.64
10176;BME280;18221;38.704;0.152;2023-05-10T00:57:05;99065.41;;;23.69;38.63
10176;BME280;18221;38.704;0.152;2023-05-10T00:59:34;99068.28;;;23.74;38.39
10176;BME280;18221;38.704;0.152;2023-05-10T01:02:03;99052.97;;;23.61;38.42
10176;BME280;18221;38.704;0.152;2023-05-10T01:04:32;99062.97;;;23.61;38.83
10176;BME280;18221;38.704;0.152;2023-05-10T01:07:01;99055.84;;;23.66;38.71
10176;BME280;18221;38.704;0.152;2023-05-10T01:09:29;99060.59;;;23.71;38.50
10176;BME280;18221;38.704;0.152;2023-05-10T01:12:01;99058.44;;;23.79;38.00
10176;BME280;18221;38.704;0.152;2023-05-10T01:14:32;99067.59;;;23.78;38.21
10176;BME280;18221;38.704;0.152;2023-05-10T01:17:01;99071.44;;;23.71;38.65
10176;BME280;18221;38.704;0.152;2023-05-10T01:19:31;99071.09;;;23.61;38.56
10176;BME280;18221;38.704;0.152;2023-05-10T01:22:39;99078.72;;;23.70;38.69
10176;BME280;18221;38.704;0.152;2023-05-10T01:26:11;99079.28;;;23.79;38.71
10176;BME280;18221;38.704;0.152;2023-05-10T01:29:11;99082.44;;;23.76;38.54
10176;BME280;18221;38.704;0.152;2023-05-10T01:32:16;99076.97;;;23.82;38.39
10176;BME280;18221;38.704;0.152;2023-05-10T01:35:00;99079.72;;;23.76;38.82
10176;BME280;18221;38.704;0.152;2023-05-10T01:37:41;99080.31;;;23.78;38.60
10176;BME280;18221;38.704;0.152;2023-05-10T01:40:22;99072.25;;;23.71;38.55
10176;BME280;18221;38.704;0.152;2023-05-10T01:42:59;99077.91;;;23.70;38.96
10176;BME280;18221;38.704;0.152;2023-05-10T01:45:36;99078.75;;;23.46;39.41
10176;BME280;18221;38.704;0.152;2023-05-10T01:48:10;99072.88;;;23.49;39.16
10176;BME280;18221;38.704;0.152;2023-05-10T01:50:43;99070.34;;;23.54;39.32
10176;BME280;18221;38.704;0.152;2023-05-10T01:53:13;99059.06;;;23.57;39.22
10176;BME280;18221;38.704;0.152;2023-05-10T01:55:51;99058.25;;;23.50;39.39
10176;BME280;18221;38.704;0.152;2023-05-10T01:58:27;99064.09;;;23.53;39.41
10176;BME280;18221;38.704;0.152;2023-05-10T02:00:58;99062.31;;;23.34;39.75
10176;BME280;18221;38.704;0.152;2023-05-10T02:03:32;99062.56;;;23.57;39.39
10176;BME280;18221;38.704;0.152;2023-05-10T02:06:03;99055.88;;;23.60;39.31
10176;BME280;18221;38.704;0.152;2023-05-10T02:08:36;99063.94;;;23.42;39.67
10176;BME280;18221;38.704;0.152;2023-05-10T02:11:05;99069.34;;;23.48;39.76
10176;BME280;18221;38.704;0.152;2023-05-10T02:13:38;99064.47;;;23.57;39.41
10176;BME280;18221;38.704;0.152;2023-05-10T02:16:07;99071.03;;;23.43;39.53
10176;BME280;18221;38.704;0.152;2023-05-10T02:18:39;99069.91;;;23.57;39.54
10176;BME280;18221;38.704;0.152;2023-05-10T02:21:10;99083.38;;;23.63;39.38
10176;BME280;18221;38.704;0.152;2023-05-10T02:23:40;99083.81;;;23.60;39.48
10176;BME280;18221;38.704;0.152;2023-05-10T02:26:09;99078.94;;;23.44;39.96
10176;BME280;18221;38.704;0.152;2023-05-10T02:28:40;99072.94;;;23.35;40.14
10176;BME280;18221;38.704;0.152;2023-05-10T02:31:11;99076.91;;;23.40;39.92
10176;BME280;18221;38.704;0.152;2023-05-10T02:33:43;99071.09;;;23.29;40.33
10176;BME280;18221;38.704;0.152;2023-05-10T02:36:15;99077.75;;;23.33;40.21
10176;BME280;18221;38.704;0.152;2023-05-10T02:38:46;99069.34;;;23.48;39.79
10176;BME280;18221;38.704;0.152;2023-05-10T02:41:16;99062.69;;;23.44;39.95
10176;BME280;18221;38.704;0.152;2023-05-10T02:43:47;99064.28;;;23.52;39.85
10176;BME280;18221;38.704;0.152;2023-05-10T02:46:18;99068.47;;;23.54;39.76
10176;BME280;18221;38.704;0.152;2023-05-10T02:48:48;99068.84;;;23.58;39.94
10176;BME280;18221;38.704;0.152;2023-05-10T02:51:18;99069.69;;;23.52;40.25
10176;BME280;18221;38.704;0.152;2023-05-10T02:53:49;99065.78;;;23.48;40.26
10176;BME280;18221;38.704;0.152;2023-05-10T02:56:28;99065.97;;;23.53;40.35
10176;BME280;18221;38.704;0.152;2023-05-10T02:58:59;99069.81;;;23.63;40.11
10176;BME280;18221;38.704;0.152;2023-05-10T03:01:29;99076.91;;;23.64;40.09
10176;BME280;18221;38.704;0.152;2023-05-10T03:03:59;99061.09;;;23.61;40.43
10176;BME280;18221;38.704;0.152;2023-05-10T03:06:27;99071.53;;;23.58;40.50
10176;BME280;18221;38.704;0.152;2023-05-10T03:08:56;99069.81;;;23.63;40.60
10176;BME280;18221;38.704;0.152;2023-05-10T03:11:43;99063.84;;;23.55;40.64
10176;BME280;18221;38.704;0.152;2023-05-10T03:14:29;99065.78;;;23.48;41.15
10176;BME280;18221;38.704;0.152;2023-05-10T03:17:10;99057.25;;;23.44;40.98
10176;BME280;18221;38.704;0.152;2023-05-10T03:19:50;99063.53;;;23.45;41.12
10176;BME280;18221;38.704;0.152;2023-05-10T03:22:26;99065.84;;;23.41;41.35
10176;BME280;18221;38.704;0.152;2023-05-10T03:24:58;99067.34;;;23.37;41.50
10176;BME280;18221;38.704;0.152;2023-05-10T03:27:31;99060.19;;;23.43;41.52
10176;BME280;18221;38.704;0.152;2023-05-10T03:30:01;99065.84;;;23.41;41.88
10176;BME280;18221;38.704;0.152;2023-05-10T03:32:30;99059.00;;;23.39;41.92
10176;BME280;18221;38.704;0.152;2023-05-10T03:35:07;99057.22;;;23.19;42.54
10176;BME280;18221;38.704;0.152;2023-05-10T03:37:36;99055.97;;;23.22;42.61
10176;BME280;18221;38.704;0.152;2023-05-10T03:40:07;99053.44;;;23.20;42.92
10176;BME280;18221;38.704;0.152;2023-05-10T03:42:36;99054.38;;;23.08;43.35
10176;BME280;18221;38.704;0.152;2023-05-10T03:45:06;99055.28;;;22.95;43.91
10176;BME280;18221;38.704;0.152;2023-05-10T03:47:35;99057.09;;;23.08;43.96
10176;BME280;18221;38.704;0.152;2023-05-10T03:50:07;99053.50;;;23.14;44.14
10176;BME280;18221;38.704;0.152;2023-05-10T03:52:37;99052.06;;;23.11;44.06
10176;BME280;18221;38.704;0.152;2023-05-10T03:55:07;99058.75;;;23.09;44.18
10176;BME280;18221;38.704;0.152;2023-05-10T03:57:36;99062.50;;;23.08;44.55
10176;BME280;18221;38.704;0.152;2023-05-10T04:00:05;99061.13;;;22.99;44.70
10176;BME280;18221;38.704;0.152;2023-05-10T04:02:35;99058.06;;;22.89;45.30
10176;BME280;18221;38.704;0.152;2023-05-10T04:05:05;99048.75;;;22.78;45.80
10176;BME280;18221;38.704;0.152;2023-05-10T04:07:34;99048.09;;;22.83;45.60
10176;BME280;18221;38.704;0.152;2023-05-10T04:10:03;99044.97;;;22.79;45.87
10176;BME280;18221;38.704;0.152;2023-05-10T04:12:32;99056.22;;;22.76;46.26
10176;BME280;18221;38.704;0.152;2023-05-10T04:15:00;99052.47;;;22.84;46.04
10176;BME280;18221;38.704;0.152;2023-05-10T04:17:29;99060.19;;;22.80;46.21
10176;BME280;18221;38.704;0.152;2023-05-10T04:19:58;99061.00;;;22.81;46.34
10176;BME280;18221;38.704;0.152;2023-05-10T04:22:28;99065.38;;;22.82;46.27
10176;BME280;18221;38.704;0.152;2023-05-10T04:24:57;99078.53;;;22.78;46.57
10176;BME280;18221;38.704;0.152;2023-05-10T04:27:25;99087.75;;;22.51;47.24
10176;BME280;18221;38.704;0.152;2023-05-10T04:29:54;99084.03;;;22.52;47.52
10176;BME280;18221;38.704;0.152;2023-05-10T04:32:23;99081.50;;;22.57;47.57
10176;BME280;18221;38.704;0.152;2023-05-10T04:34:51;99087.75;;;22.57;47.57
10176;BME280;18221;38.704;0.152;2023-05-10T04:37:20;99083.56;;;22.68;47.40
10176;BME280;18221;38.704;0.152;2023-05-10T04:39:51;99073.84;;;22.41;48.10
10176;BME280;18221;38.704;0.152;2023-05-10T04:42:19;99056.78;;;22.47;48.19
10176;BME280;18221;38.704;0.152;2023-05-10T04:44:48;99058.00;;;22.51;47.99
10176;BME280;18221;38.704;0.152;2023-05-10T04:47:16;99079.03;;;22.49;48.09
10176;BME280;18221;38.704;0.152;2023-05-10T04:49:45;99086.91;;;22.50;48.03
10176;BME280;18221;38.704;0.152;2023-05-10T04:52:13;99099.38;;;22.58;47.84
10176;BME280;18221;38.704;0.152;2023-05-10T04:54:43;99095.41;;;22.60;47.67
10176;BME280;18221;38.704;0.152;2023-05-10T04:57:15;99072.19;;;22.40;47.87
10176;BME280;18221;38.704;0.152;2023-05-10T04:59:44;99054.91;;;22.41;47.81
10176;BME280;18221;38.704;0.152;2023-05-10T05:02:12;99059.56;;;22.21;48.45
10176;BME280;18221;38.704;0.152;2023-05-10T05:04:41;99072.69;;;22.24;48.63
10176;BME280;18221;38.704;0.152;2023-05-10T05:07:09;99080.59;;;22.19;48.81
10176;BME280;18221;38.704;0.152;2023-05-10T05:09:38;99082.41;;;22.38;48.11
10176;BME280;18221;38.704;0.152;2023-05-10T05:12:06;99092.03;;;22.21;46.44
10176;BME280;18221;38.704;0.152;2023-05-10T05:14:36;99080.44;;;21.94;44.62
10176;BME280;18221;38.704;0.152;2023-05-10T05:17:05;99082.50;;;21.66;42.97
10176;BME280;18221;38.704;0.152;2023-05-10T05:19:33;99092.91;;;21.62;40.77
10176;BME280;18221;38.704;0.152;2023-05-10T05:22:02;99098.31;;;21.56;38.54
10176;BME280;18221;38.704;0.152;2023-05-10T05:24:36;99085.84;;;21.48;37.92
10176;BME280;18221;38.704;0.152;2023-05-10T05:27:04;99079.16;;;21.70;36.93
10176;BME280;18221;38.704;0.152;2023-05-10T05:29:35;99082.69;;;21.77;36.60
10176;BME280;18221;38.704;0.152;2023-05-10T05:32:03;99098.13;;;21.90;35.91
10176;BME280;18221;38.704;0.152;2023-05-10T05:34:32;99110.38;;;22.05;35.33
10176;BME280;18221;38.704;0.152;2023-05-10T05:37:00;99119.31;;;22.12;35.60
10176;BME280;18221;38.704;0.152;2023-05-10T05:39:29;99118.25;;;22.07;35.70
10176;BME280;18221;38.704;0.152;2023-05-10T05:41:58;99110.56;;;22.10;36.17
10176;BME280;18221;38.704;0.152;2023-05-10T05:44:28;99118.69;;;22.04;36.32
10176;BME280;18221;38.704;0.152;2023-05-10T05:46:58;99114.09;;;22.04;36.30
10176;BME280;18221;38.704;0.152;2023-05-10T05:49:27;99116.59;;;22.12;35.90
10176;BME280;18221;38.704;0.152;2023-05-10T05:51:59;99119.31;;;22.12;35.92
10176;BME280;18221;38.704;0.152;2023-05-10T05:54:29;99123.44;;;22.22;35.49
10176;BME280;18221;38.704;0.152;2023-05-10T05:56:59;99131.97;;;22.25;35.01
10176;BME280;18221;38.704;0.152;2023-05-10T05:59:28;99131.94;;;22.32;34.89
10176;BME280;18221;38.704;0.152;2023-05-10T06:01:58;99123.06;;;21.92;35.63
10176;BME280;18221;38.704;0.152;2023-05-10T06:04:27;99117.03;;;21.96;35.79
10176;BME280;18221;38.704;0.152;2023-05-10T06:06:56;99131.56;;;21.82;35.93
10176;BME280;18221;38.704;0.152;2023-05-10T06:09:24;99144.69;;;21.98;35.71
10176;BME280;18221;38.704;0.152;2023-05-10T06:11:53;99152.75;;;22.25;35.44
10176;BME280;18221;38.704;0.152;2023-05-10T06:14:22;99155.66;;;22.36;35.19
10176;BME280;18221;38.704;0.152;2023-05-10T06:16:50;99151.13;;;22.10;35.45
10176;BME280;18221;38.704;0.152;2023-05-10T06:19:20;99152.38;;;22.21;35.69
10176;BME280;18221;38.704;0.152;2023-05-10T06:21:49;99157.53;;;22.36;35.35
10176;BME280;18221;38.704;0.152;2023-05-10T06:24:18;99159.59;;;22.47;35.27
10176;BME280;18221;38.704;0.152;2023-05-10T06:26:46;99152.91;;;22.56;35.25
10176;BME280;18221;38.704;0.152;2023-05-10T06:29:16;99157.75;;;22.28;36.08
10176;BME280;18221;38.704;0.152;2023-05-10T06:31:45;99162.72;;;22.37;36.12
10176;BME280;18221;38.704;0.152;2023-05-10T06:34:13;99170.00;;;22.43;36.23
10176;BME280;18221;38.704;0.152;2023-05-10T06:36:43;99168.34;;;22.49;35.74
10176;BME280;18221;38.704;0.152;2023-05-10T06:39:12;99165.81;;;22.54;35.36
10176;BME280;18221;38.704;0.152;2023-05-10T06:41:44;99176.03;;;22.65;34.77
10176;BME280;18221;38.704;0.152;2023-05-10T06:44:12;99174.59;;;22.62;34.61
10176;BME280;18221;38.704;0.152;2023-05-10T06:46:41;99183.78;;;22.29;34.57
10176;BME280;18221;38.704;0.152;2023-05-10T06:49:09;99186.66;;;22.47;34.63
10176;BME280;18221;38.704;0.152;2023-05-10T06:51:38;99185.19;;;22.51;34.25
10176;BME280;18221;38.704;0.152;2023-05-10T06:54:08;99189.75;;;22.57;34.27
10176;BME280;18221;38.704;0.152;2023-05-10T06:56:37;99192.66;;;22.75;34.37
10176;BME280;18221;38.704;0.152;2023-05-10T06:59:09;99199.19;;;23.05;34.00
10176;BME280;18221;38.704;0.152;2023-05-10T07:01:39;99198.69;;;22.77;34.38
10176;BME280;18221;38.704;0.152;2023-05-10T07:04:07;99187.81;;;22.90;33.74
10176;BME280;18221;38.704;0.152;2023-05-10T07:06:36;99179.38;;;22.47;34.13
10176;BME280;18221;38.704;0.152;2023-05-10T07:09:05;99177.53;;;22.22;34.26
10176;BME280;18221;38.704;0.152;2023-05-10T07:11:35;99183.13;;;22.46;34.03
10176;BME280;18221;38.704;0.152;2023-05-10T07:14:04;99185.41;;;22.43;33.69
10176;BME280;18221;38.704;0.152;2023-05-10T07:16:33;99190.97;;;22.61;33.31
10176;BME280;18221;38.704;0.152;2023-05-10T07:19:02;99197.88;;;22.57;33.22
10176;BME280;18221;38.704;0.152;2023-05-10T07:21:32;99197.53;;;22.07;34.10
10176;BME280;18221;38.704;0.152;2023-05-10T07:24:01;99194.38;;;22.37;33.68
10176;BME280;18221;38.704;0.152;2023-05-10T07:26:30;99198.75;;;22.11;34.07
10176;BME280;18221;38.704;0.152;2023-05-10T07:29:00;99196.66;;;22.33;34.04
10176;BME280;18221;38.704;0.152;2023-05-10T07:31:28;99194.81;;;22.21;33.90
10176;BME280;18221;38.704;0.152;2023-05-10T07:33:57;99203.53;;;22.36;33.79
10176;BME280;18221;38.704;0.152;2023-05-10T07:36:25;99202.72;;;22.29;33.90
10176;BME280;18221;38.704;0.152;2023-05-10T07:38:57;99204.75;;;22.40;33.69
10176;BME280;18221;38.704;0.152;2023-05-10T07:41:25;99207.44;;;22.59;33.27
10176;BME280;18221;38.704;0.152;2023-05-10T07:43:54;99213.91;;;22.78;33.12
10176;BME280;18221;38.704;0.152;2023-05-10T07:46:24;99212.19;;;22.90;32.90
10176;BME280;18221;38.704;0.152;2023-05-10T07:48:53;99213.56;;;23.12;32.48
10176;BME280;18221;38.704;0.152;2023-05-10T07:51:21;99214.84;;;23.48;32.18
10176;BME280;18221;38.704;0.152;2023-05-10T07:53:50;99213.22;;;24.03;31.83
10176;BME280;18221;38.704;0.152;2023-05-10T07:56:23;99210.28;;;24.53;30.94
10176;BME280;18221;38.704;0.152;2023-05-10T07:58:54;99220.06;;;25.15;29.83
10176;BME280;18221;38.704;0.152;2023-05-10T08:01:25;99224.19;;;25.54;29.45
10176;BME280;18221;38.704;0.152;2023-05-10T08:03:54;99212.84;;;25.99;28.68
10176;BME280;18221;38.704;0.152;2023-05-10T08:06:23;99219.31;;;26.51;28.03
10176;BME280;18221;38.704;0.152;2023-05-10T08:08:53;99221.09;;;27.31;26.68
10176;BME280;18221;38.704;0.152;2023-05-10T08:11:22;99219.81;;;27.62;25.81
10176;BME280;18221;38.704;0.152;2023-05-10T08:13:52;99219.47;;;28.53;25.38
10176;BME280;18221;38.704;0.152;2023-05-10T08:16:21;99221.06;;;28.33;24.60
10176;BME280;18221;38.704;0.152;2023-05-10T08:18:51;99216.66;;;28.32;24.73
10176;BME280;18221;38.704;0.152;2023-05-10T08:21:22;99224.78;;;28.10;24.93
10176;BME280;18221;38.704;0.152;2023-05-10T08:23:50;99221.69;;;27.62;25.00
10176;BME280;18221;38.704;0.152;2023-05-10T08:26:19;99222.66;;;28.29;24.41
10176;BME280;18221;38.704;0.152;2023-05-10T08:28:48;99223.63;;;28.06;25.41
10176;BME280;18221;38.704;0.152;2023-05-10T08:31:16;99214.47;;;28.00;25.05
10176;BME280;18221;38.704;0.152;2023-05-10T08:33:45;99217.72;;;27.52;25.72
10176;BME280;18221;38.704;0.152;2023-05-10T08:36:15;99224.25;;;26.88;26.61
10176;BME280;18221;38.704;0.152;2023-05-10T08:38:50;99220.00;;;26.34;26.78
10176;BME280;18221;38.704;0.152;2023-05-10T08:41:20;99225.56;;;26.16;27.29
10176;BME280;18221;38.704;0.152;2023-05-10T08:43:51;99224.31;;;26.01;27.72
10176;BME280;18221;38.704;0.152;2023-05-10T08:46:23;99218.22;;;26.17;28.14
10176;BME280;18221;38.704;0.152;2023-05-10T08:48:54;99215.00;;;25.78;27.55
10176;BME280;18221;38.704;0.152;2023-05-10T08:51:27;99219.19;;;25.81;28.08
10176;BME280;18221;38.704;0.152;2023-05-10T08:53:59;99218.97;;;25.35;29.12
10176;BME280;18221;38.704;0.152;2023-05-10T08:56:28;99230.00;;;25.22;29.60
10176;BME280;18221;38.704;0.152;2023-05-10T08:58:57;99216.94;;;25.30;29.64
10176;BME280;18221;38.704;0.152;2023-05-10T09:01:27;99224.84;;;25.50;29.44
10176;BME280;18221;38.704;0.152;2023-05-10T09:03:58;99220.84;;;25.34;28.94
10176;BME280;18221;38.704;0.152;2023-05-10T09:06:28;99216.81;;;25.25;28.12
10176;BME280;18221;38.704;0.152;2023-05-10T09:08:59;99207.94;;;25.48;28.97
10176;BME280;18221;38.704;0.152;2023-05-10T09:11:30;99220.53;;;25.12;29.54
10176;BME280;18221;38.704;0.152;2023-05-10T09:13:58;99222.09;;;25.20;29.73
10176;BME280;18221;38.704;0.152;2023-05-10T09:16:27;99209.09;;;25.22;30.47
10176;BME280;18221;38.704;0.152;2023-05-10T09:18:57;99212.09;;;25.02;30.05
10176;BME280;18221;38.704;0.152;2023-05-10T09:21:27;99210.19;;;24.85;29.57
10176;BME280;18221;38.704;0.152;2023-05-10T09:23:56;99208.38;;;24.79;27.82
10176;BME280;18221;38.704;0.152;2023-05-10T09:26:25;99200.97;;;25.04;29.19
10176;BME280;18221;38.704;0.152;2023-05-10T09:28:56;99198.97;;;25.29;28.40
10176;BME280;18221;38.704;0.152;2023-05-10T09:31:43;99200.03;;;25.46;28.04
10176;BME280;18221;38.704;0.152;2023-05-10T09:34:17;99202.75;;;25.28;27.58
10176;BME280;18221;38.704;0.152;2023-05-10T09:36:56;99186.69;;;25.56;27.42
10176;BME280;18221;38.704;0.152;2023-05-10T09:39:32;99205.75;;;25.38;27.48
10176;BME280;18221;38.704;0.152;2023-05-10T09:42:04;99194.75;;;25.33;26.71
10176;BME280;18221;38.704;0.152;2023-05-10T09:44:33;99190.66;;;25.24;26.12
10176;BME280;18221;38.704;0.152;2023-05-10T09:47:03;99186.16;;;25.18;25.80
10176;BME280;18221;38.704;0.152;2023-05-10T09:49:32;99179.97;;;25.11;26.98
10176;BME280;18221;38.704;0.152;2023-05-10T09:52:05;99189.97;;;24.99;26.75
10176;BME280;18221;38.704;0.152;2023-05-10T09:54:35;99182.97;;;25.39;27.08
10176;BME280;18221;38.704;0.152;2023-05-10T09:57:04;99183.72;;;25.28;24.76
10176;BME280;18221;38.704;0.152;2023-05-10T09:59:34;99181.78;;;25.65;26.07
10176;BME280;18221;38.704;0.152;2023-05-10T10:02:03;99185.47;;;25.70;26.45
10176;BME280;18221;38.704;0.152;2023-05-10T10:04:32;99179.81;;;25.84;26.77
10176;BME280;18221;38.704;0.152;2023-05-10T10:07:04;99182.78;;;26.05;27.69
10176;BME280;18221;38.704;0.152;2023-05-10T10:09:34;99179.53;;;25.73;27.89
10176;BME280;18221;38.704;0.152;2023-05-10T10:12:03;99177.84;;;25.61;28.27
10176;BME280;18221;38.704;0.152;2023-05-10T10:14:32;99184.66;;;25.93;27.62
10176;BME280;18221;38.704;0.152;2023-05-10T10:17:02;99186.47;;;26.11;27.61
10176;BME280;18221;38.704;0.152;2023-05-10T10:19:34;99178.91;;;26.13;27.33
10176;BME280;18221;38.704;0.152;2023-05-10T10:22:04;99186.72;;;26.21;27.68
10176;BME280;18221;38.704;0.152;2023-05-10T10:24:34;99182.81;;;26.28;27.70
10176;BME280;18221;38.704;0.152;2023-05-10T10:27:19;99180.81;;;26.47;27.04
10176;BME280;18221;38.704;0.152;2023-05-10T10:30:01;99172.06;;;26.22;24.95
10176;BME280;18221;38.704;0.152;2023-05-10T10:32:50;99169.22;;;26.17;26.09
10176;BME280;18221;38.704;0.152;2023-05-10T10:35:26;99170.06;;;25.76;27.40
10176;BME280;18221;38.704;0.152;2023-05-10T10:37:57;99161.19;;;25.69;27.70
10176;BME280;18221;38.704;0.152;2023-05-10T10:40:27;99158.50;;;25.81;26.93
10176;BME280;18221;38.704;0.152;2023-05-10T10:42:57;99164.19;;;25.91;26.38
10176;BME280;18221;38.704;0.152;2023-05-10T10:45:26;99163.00;;;25.87;27.07
10176;BME280;18221;38.704;0.152;2023-05-10T10:48:22;99158.06;;;26.07;27.93
10176;BME280;18221;38.704;0.152;2023-05-10T10:50:57;99159.19;;;26.17;27.58
10176;BME280;18221;38.704;0.152;2023-05-10T10:53:28;99165.31;;;26.24;27.14
10176;BME280;18221;38.704;0.152;2023-05-10T10:56:09;99159.75;;;26.31;26.33
10176;BME280;18221;38.704;0.152;2023-05-10T10:58:39;99163.41;;;26.13;27.40
10176;BME280;18221;38.704;0.152;2023-05-10T11:01:15;99157.88;;;26.20;27.71
10176;BME280;18221;38.704;0.152;2023-05-10T11:04:18;99150.75;;;26.42;26.52
10176;BME280;18221;38.704;0.152;2023-05-10T11:06:49;99157.63;;;26.33;25.86
10176;BME280;18221;38.704;0.152;2023-05-10T11:09:25;99147.66;;;26.38;25.28
10176;BME280;18221;38.704;0.152;2023-05-10T11:11:55;99145.78;;;26.39;26.49
10176;BME280;18221;38.704;0.152;2023-05-10T11:14:26;99141.63;;;26.48;26.54
10176;BME280;18221;38.704;0.152;2023-05-10T11:16:55;99129.19;;;26.64;25.70
10176;BME280;18221;38.704;0.152;2023-05-10T11:19:28;99134.88;;;26.39;25.35
10176;BME280;18221;38.704;0.152;2023-05-10T11:22:13;99142.22;;;26.50;27.23
10176;BME280;18221;38.704;0.152;2023-05-10T11:24:57;99145.16;;;26.72;27.37
10176;BME280;18221;38.704;0.152;2023-05-10T11:27:26;99144.19;;;26.89;25.88
10176;BME280;18221;38.704;0.152;2023-05-10T11:29:55;99132.28;;;26.44;25.91
10176;BME280;18221;38.704;0.152;2023-05-10T11:32:24;99136.41;;;26.47;26.24
10176;BME280;18221;38.704;0.152;2023-05-10T11:34:53;99128.19;;;26.70;26.37
10176;BME280;18221;38.704;0.152;2023-05-10T11:37:22;99124.06;;;26.79;25.15
10176;BME280;18221;38.704;0.152;2023-05-10T11:39:55;99109.97;;;27.10;27.00
10176;BME280;18221;38.704;0.152;2023-05-10T11:42:24;99118.44;;;27.25;27.13
10176;BME280;18221;38.704;0.152;2023-05-10T11:44:52;99103.09;;;27.36;26.55
10176;BME280;18221;38.704;0.152;2023-05-10T11:47:24;99100.84;;;27.33;26.43
10176;BME280;18221;38.704;0.152;2023-05-10T11:49:53;99102.16;;;27.42;26.35
10176;BME280;18221;38.704;0.152;2023-05-10T11:52:24;99102.72;;;27.44;26.21
10176;BME280;18221;38.704;0.152;2023-05-10T11:54:55;99097.44;;;27.54;27.07
10176;BME280;18221;38.704;0.152;2023-05-10T11:57:27;99094.72;;;27.54;26.79
10176;BME280;18221;38.704;0.152;2023-05-10T11:59:57;99090.25;;;27.65;26.94
10176;BME280;18221;38.704;0.152;2023-05-10T12:02:26;99095.72;;;27.65;26.90
10176;BME280;18221;38.704;0.152;2023-05-10T12:04:56;99099.94;;;27.55;27.16
10176;BME280;18221;38.704;0.152;2023-05-10T12:07:26;99094.13;;;27.52;27.29
10176;BME280;18221;38.704;0.152;2023-05-10T12:10:09;99084.16;;;27.58;27.43
10176;BME280;18221;38.704;0.152;2023-05-10T12:12:43;99081.84;;;27.66;27.20
10176;BME280;18221;38.704;0.152;2023-05-10T12:15:17;99085.44;;;27.72;26.90
10176;BME280;18221;38.704;0.152;2023-05-10T12:17:47;99071.00;;;27.71;27.97
10176;BME280;18221;38.704;0.152;2023-05-10T12:20:19;99064.97;;;27.52;27.40
10176;BME280;18221;38.704;0.152;2023-05-10T12:22:51;99070.91;;;27.49;27.34
10176;BME280;18221;38.704;0.152;2023-05-10T12:25:23;99059.50;;;27.52;27.00
10176;BME280;18221;38.704;0.152;2023-05-10T12:27:55;99052.81;;;27.60;26.92
10176;BME280;18221;38.704;0.152;2023-05-10T12:30:25;99054.44;;;27.61;27.63
10176;BME280;18221;38.704;0.152;2023-05-10T12:33:00;99044.97;;;27.64;27.30
10176;BME280;18221;38.704;0.152;2023-05-10T12:35:38;99050.75;;;27.67;27.41
10176;BME280;18221;38.704;0.152;2023-05-10T12:38:26;99061.16;;;27.70;27.87
10176;BME280;18221;38.704;0.152;2023-05-10T12:40:59;99050.50;;;27.69;28.44
10176;BME280;18221;38.704;0.152;2023-05-10T12:43:28;99042.06;;;27.70;28.23
10176;BME280;18221;38.704;0.152;2023-05-10T12:45:57;99034.88;;;27.47;27.38
10176;BME280;18221;38.704;0.152;2023-05-10T12:48:26;99037.66;;;27.36;27.98
10176;BME280;18221;38.704;0.152;2023-05-10T12:50:55;99043.16;;;27.52;27.28
10176;BME280;18221;38.704;0.152;2023-05-10T12:53:24;99041.16;;;27.48;27.67
10176;BME280;18221;38.704;0.152;2023-05-10T12:55:53;99034.63;;;27.49;29.08
10176;BME280;18221;38.704;0.152;2023-05-10T12:58:23;99038.59;;;27.58;28.24
10176;BME280;18221;38.704;0.152;2023-05-10T13:00:51;99033.06;;;27.53;28.71
10176;BME280;18221;38.704;0.152;2023-05-10T13:03:20;99027.69;;;27.58;28.99
10176;BME280;18221;38.704;0.152;2023-05-10T13:05:49;99029.81;;;27.56;28.57
10176;BME280;18221;38.704;0.152;2023-05-10T13:08:18;99027.78;;;27.63;28.11
10176;BME280;18221;38.704;0.152;2023-05-10T13:10:46;99025.34;;;27.67;27.66
10176;BME280;18221;38.704;0.152;2023-05-10T13:13:15;99028.41;;;27.37;28.24
10176;BME280;18221;38.704;0.152;2023-05-10T13:15:46;99021.16;;;27.59;27.19
10176;BME280;18221;38.704;0.152;2023-05-10T13:18:15;99017.50;;;27.70;25.72
10176;BME280;18221;38.704;0.152;2023-05-10T13:20:43;99025.28;;;27.78;27.61
10176;BME280;18221;38.704;0.152;2023-05-10T13:23:12;99019.47;;;27.75;26.94
10176;BME280;18221;38.704;0.152;2023-05-10T13:25:40;99015.63;;;27.92;27.71